Time;durP1;ratioP1;P1;durP2;ratioP2;P2;SDS_P1;SDS_P2;PMS_P1;PMS_P2;Temp;Humidity;BMP_temperature;BMP_pressure;BME280_temperature;BME280_humidity;BME280_pressure;Samples;Min_cycle;Max_cycle;Signal;HPM_P1;HPM_P2
2023/12/16 00:01:47;;;;;;;31.27;14.37;;;7.40;99.90;;;;;;5078639;28;20688;-82
2023/12/16 00:04:14;;;;;;;30.20;13.17;;;7.20;99.90;;;;;;5080872;28;20195;-82
2023/12/16 00:06:41;;;;;;;30.00;13.47;;;7.00;99.90;;;;;;5079423;28;20236;-80
2023/12/16 00:09:09;;;;;;;28.50;12.23;;;7.10;1.00;;;;;;5071746;28;20207;-81
2023/12/16 00:11:36;;;;;;;26.50;12.60;;;7.00;1.00;;;;;;5075219;28;20592;-82
2023/12/16 00:14:04;;;;;;;24.80;11.83;;;6.90;1.00;;;;;;5078311;28;20567;-82
2023/12/16 00:16:31;;;;;;;29.87;12.43;;;6.90;1.00;;;;;;5076581;28;20206;-81
2023/12/16 00:18:58;;;;;;;25.27;11.40;;;6.90;1.00;;;;;;5068493;28;20203;-81
2023/12/16 00:21:25;;;;;;;25.43;11.83;;;6.80;1.00;;;;;;5074032;28;20233;-81
2023/12/16 00:23:51;;;;;;;24.40;11.37;;;6.90;1.00;;;;;;5073054;28;20289;-81
2023/12/16 00:26:19;;;;;;;27.87;12.20;;;6.60;99.90;;;;;;5074257;28;20269;-83
2023/12/16 00:28:46;;;;;;;29.23;12.17;;;6.70;99.90;;;;;;5078787;28;20266;-82
2023/12/16 00:31:13;;;;;;;30.50;11.80;;;6.50;1.00;;;;;;5060905;28;20222;-83
2023/12/16 00:33:40;;;;;;;26.90;11.90;;;6.60;1.00;;;;;;5071277;28;20213;-82
2023/12/16 00:36:07;;;;;;;28.20;12.07;;;6.60;1.00;;;;;;5073452;28;20200;-81
2023/12/16 00:38:34;;;;;;;25.57;11.13;;;6.60;1.00;;;;;;5077534;28;20233;-80
2023/12/16 00:41:01;;;;;;;26.23;11.73;;;6.60;1.00;;;;;;5076743;28;20305;-83
2023/12/16 00:43:29;;;;;;;27.17;10.77;;;6.70;1.00;;;;;;5074905;28;20575;-80
2023/12/16 00:45:56;;;;;;;27.00;10.80;;;6.80;1.00;;;;;;5071696;28;20198;-81
2023/12/16 00:48:23;;;;;;;22.20;10.87;;;7.00;1.00;;;;;;5077100;28;20293;-82
2023/12/16 00:50:50;;;;;;;28.53;10.63;;;6.80;99.90;;;;;;5071289;28;20396;-82
2023/12/16 00:53:17;;;;;;;27.03;12.10;;;6.70;99.90;;;;;;5066364;28;20577;-81
2023/12/16 00:55:43;;;;;;;26.53;11.60;;;7.00;99.90;;;;;;5075891;28;20294;-83
2023/12/16 00:58:10;;;;;;;24.13;10.53;;;6.80;98.50;;;;;;5075758;28;20197;-81
2023/12/16 01:00:39;;;;;;;26.87;10.73;;;6.80;90.90;;;;;;5067588;28;20222;-81
2023/12/16 01:03:06;;;;;;;26.63;10.37;;;6.80;99.90;;;;;;5068703;28;20224;-82
2023/12/16 01:05:32;;;;;;;26.70;11.43;;;6.80;99.90;;;;;;5059229;28;20226;-81
2023/12/16 01:07:59;;;;;;;23.70;10.40;;;7.00;99.90;;;;;;5079699;28;20708;-82
2023/12/16 01:10:26;;;;;;;22.93;9.70;;;6.80;1.00;;;;;;5070933;28;20257;-82
2023/12/16 01:12:53;;;;;;;27.53;11.30;;;6.80;1.00;;;;;;5076409;28;20711;-81
2023/12/16 01:15:20;;;;;;;23.57;9.87;;;6.90;99.90;;;;;;5061972;28;20211;-82
2023/12/16 01:17:48;;;;;;;26.20;10.67;;;7.00;1.00;;;;;;5073682;28;20278;-83
2023/12/16 01:20:15;;;;;;;26.23;10.33;;;7.40;1.00;;;;;;5069897;28;20225;-83
2023/12/16 01:22:42;;;;;;;19.50;9.20;;;7.00;1.00;;;;;;5074120;28;20233;-83
2023/12/16 01:25:10;;;;;;;25.33;9.73;;;7.10;99.90;;;;;;5068250;28;20211;-83
2023/12/16 01:27:36;;;;;;;27.37;10.30;;;7.10;99.90;;;;;;5066401;28;20632;-83
2023/12/16 01:30:05;;;;;;;20.90;8.40;;;7.10;99.90;;;;;;5065060;28;20220;-83
2023/12/16 01:32:32;;;;;;;25.00;10.07;;;7.10;99.90;;;;;;5072166;28;20718;-81
2023/12/16 01:35:00;;;;;;;22.83;9.40;;;7.00;99.90;;;;;;5071093;28;20298;-82
2023/12/16 01:37:27;;;;;;;23.80;8.90;;;7.00;99.90;;;;;;5070633;28;20657;-81
2023/12/16 01:39:54;;;;;;;23.33;8.53;;;7.10;7.80;;;;;;5060807;28;20203;-81
2023/12/16 01:42:21;;;;;;;19.10;8.27;;;7.10;1.00;;;;;;5073028;28;20707;-81
2023/12/16 01:44:48;;;;;;;21.67;8.43;;;7.20;1.00;;;;;;5076191;28;20230;-81
2023/12/16 01:47:15;;;;;;;22.03;8.03;;;7.20;99.90;;;;;;5072455;28;20714;-81
2023/12/16 01:49:42;;;;;;;18.17;8.47;;;7.30;75.60;;;;;;5074619;28;20237;-82
2023/12/16 01:52:11;;;;;;;21.60;7.60;;;7.30;1.00;;;;;;5076954;28;20284;-83
2023/12/16 01:54:39;;;;;;;21.93;8.13;;;7.30;1.00;;;;;;5065393;28;20207;-82
2023/12/16 01:57:08;;;;;;;22.97;8.33;;;7.30;1.00;;;;;;5069575;28;20195;-82
2023/12/16 01:59:34;;;;;;;16.63;7.87;;;7.30;1.00;;;;;;5074605;28;20467;-83
2023/12/16 02:02:01;;;;;;;19.47;8.00;;;7.40;1.00;;;;;;5075667;28;20222;-82
2023/12/16 02:04:28;;;;;;;17.00;7.03;;;7.40;1.00;;;;;;5074650;28;20204;-83
2023/12/16 02:06:57;;;;;;;20.87;7.20;;;7.40;99.90;;;;;;5077788;28;20224;-82
2023/12/16 02:09:25;;;;;;;18.20;7.90;;;7.40;99.90;;;;;;5068603;28;20202;-82
2023/12/16 02:11:52;;;;;;;18.33;6.80;;;7.40;99.90;;;;;;5074547;28;20219;-81
2023/12/16 02:14:20;;;;;;;18.50;7.33;;;7.50;99.90;;;;;;5071052;28;20241;-81
2023/12/16 02:16:47;;;;;;;22.43;7.53;;;7.40;99.90;;;;;;5077899;28;20191;-83
2023/12/16 02:19:24;;;;;;;17.70;7.13;;;7.40;99.90;;;;;;5075446;28;20248;-80
2023/12/16 02:21:51;;;;;;;19.23;7.43;;;7.50;14.40;;;;;;5082086;28;20226;-82
2023/12/16 02:24:19;;;;;;;16.10;6.37;;;7.40;7.90;;;;;;5079301;28;20688;-81
2023/12/16 02:26:46;;;;;;;19.07;8.30;;;7.40;1.00;;;;;;5069918;28;20590;-81
2023/12/16 02:29:13;;;;;;;21.63;8.00;;;7.40;1.00;;;;;;5074862;28;20293;-82
2023/12/16 02:31:40;;;;;;;22.30;8.03;;;7.40;1.00;;;;;;5076894;28;20254;-80
2023/12/16 02:34:06;;;;;;;16.97;6.67;;;7.30;1.00;;;;;;5071221;28;20223;-81
2023/12/16 02:36:33;;;;;;;18.37;6.20;;;7.30;1.00;;;;;;5069435;28;20250;-82
2023/12/16 02:39:00;;;;;;;14.87;6.10;;;7.30;1.00;;;;;;5075205;28;20746;-80
2023/12/16 02:41:28;;;;;;;21.07;6.40;;;7.30;1.00;;;;;;5071449;28;20604;-82
2023/12/16 02:43:55;;;;;;;11.80;5.13;;;7.30;1.00;;;;;;5064176;28;20274;-82
2023/12/16 02:46:22;;;;;;;19.80;6.80;;;7.30;1.00;;;;;;5072291;28;20660;-82
2023/12/16 02:48:49;;;;;;;15.63;6.10;;;7.40;1.00;;;;;;5073015;28;20256;-80
2023/12/16 02:51:19;;;;;;;15.20;5.50;;;7.40;1.00;;;;;;5064327;28;20237;-81
2023/12/16 02:53:46;;;;;;;17.20;5.33;;;7.40;99.90;;;;;;5079518;28;20202;-81
2023/12/16 02:56:13;;;;;;;12.27;5.37;;;7.40;99.90;;;;;;5077174;28;20202;-82
2023/12/16 02:58:41;;;;;;;16.90;5.60;;;7.40;99.90;;;;;;5078765;28;20213;-82
2023/12/16 03:01:08;;;;;;;14.70;5.73;;;7.50;99.90;;;;;;5068092;28;20229;-82
2023/12/16 03:03:36;;;;;;;16.10;5.50;;;7.40;99.90;;;;;;5078083;28;20209;-83
2023/12/16 03:06:07;;;;;;;17.00;6.07;;;7.40;99.90;;;;;;5079248;28;20341;-82
2023/12/16 03:08:34;;;;;;;12.67;5.63;;;7.40;99.90;;;;;;5072083;28;20332;-82
2023/12/16 03:11:02;;;;;;;16.23;5.60;;;7.40;99.90;;;;;;5072802;28;20651;-82
2023/12/16 03:13:29;;;;;;;13.20;4.73;;;7.40;99.90;;;;;;5073914;28;20625;-81
2023/12/16 03:15:57;;;;;;;11.33;5.07;;;7.40;99.90;;;;;;5075593;28;20275;-80
2023/12/16 03:18:24;;;;;;;14.17;5.60;;;7.40;99.90;;;;;;5074596;28;20244;-82
2023/12/16 03:20:51;;;;;;;13.20;4.87;;;7.30;99.90;;;;;;5079779;28;20298;-81
2023/12/16 03:23:18;;;;;;;12.10;4.43;;;7.50;99.90;;;;;;5076492;28;20270;-81
2023/12/16 03:25:44;;;;;;;14.97;5.47;;;7.30;99.90;;;;;;5080534;28;20653;-81
2023/12/16 03:28:11;;;;;;;18.30;5.27;;;7.40;57.00;;;;;;5074391;28;20711;-82
2023/12/16 03:30:39;;;;;;;14.13;5.10;;;7.30;91.10;;;;;;5081076;28;20222;-83
2023/12/16 03:33:07;;;;;;;15.53;4.67;;;7.30;99.90;;;;;;5074872;28;20203;-82
2023/12/16 03:35:34;;;;;;;13.03;4.90;;;7.30;79.50;;;;;;5074439;28;20213;-81
2023/12/16 03:38:01;;;;;;;11.80;4.97;;;7.30;73.40;;;;;;5079570;28;20211;-82
2023/12/16 03:40:29;;;;;;;12.67;4.57;;;7.30;97.40;;;;;;5078909;28;20290;-83
2023/12/16 03:42:56;;;;;;;18.07;4.97;;;7.30;99.90;;;;;;5071220;28;20210;-84
2023/12/16 03:45:23;;;;;;;11.17;4.70;;;7.30;99.90;;;;;;5073883;28;20300;-82
2023/12/16 03:47:51;;;;;;;12.73;4.60;;;7.30;99.90;;;;;;5072850;28;20309;-82
2023/12/16 03:50:19;;;;;;;14.37;5.50;;;7.30;99.90;;;;;;5062727;28;20234;-82
2023/12/16 03:52:46;;;;;;;13.97;5.27;;;7.30;99.90;;;;;;5071334;28;20234;-83
2023/12/16 03:55:13;;;;;;;15.70;4.83;;;7.30;71.30;;;;;;5061892;28;20294;-82
2023/12/16 03:57:40;;;;;;;13.57;4.90;;;7.30;7.60;;;;;;5079694;28;20240;-82
2023/12/16 04:00:09;;;;;;;14.67;5.00;;;7.50;38.20;;;;;;5074597;28;20306;-82
2023/12/16 04:02:36;;;;;;;13.90;5.20;;;7.30;1.00;;;;;;5075206;28;20281;-81
2023/12/16 04:05:03;;;;;;;12.67;4.43;;;7.30;2.30;;;;;;5076130;28;20641;-80
2023/12/16 04:07:31;;;;;;;15.20;5.37;;;7.30;1.00;;;;;;5077422;28;20630;-80
2023/12/16 04:09:59;;;;;;;10.53;4.60;;;7.40;25.10;;;;;;5069190;28;20199;-82
2023/12/16 04:12:25;;;;;;;15.60;5.03;;;7.30;1.00;;;;;;5070222;28;20202;-81
2023/12/16 04:14:52;;;;;;;18.37;4.83;;;7.30;1.00;;;;;;5074760;28;20216;-81
2023/12/16 04:17:20;;;;;;;13.47;4.67;;;7.30;1.00;;;;;;5067402;28;20257;-81
2023/12/16 04:19:51;;;;;;;13.07;4.43;;;7.30;1.00;;;;;;5077164;28;20202;-82
2023/12/16 04:22:18;;;;;;;17.63;4.90;;;7.30;1.00;;;;;;5066422;28;20219;-80
2023/12/16 04:24:47;;;;;;;13.57;4.30;;;7.20;1.00;;;;;;5066343;28;20199;-82
2023/12/16 04:27:14;;;;;;;16.53;4.90;;;7.20;1.00;;;;;;5077730;28;20210;-83
2023/12/16 04:29:41;;;;;;;10.97;4.60;;;7.30;1.00;;;;;;5077877;28;20202;-82
2023/12/16 04:32:07;;;;;;;10.20;3.97;;;7.20;1.00;;;;;;5080745;28;20205;-83
2023/12/16 04:34:34;;;;;;;13.40;3.90;;;7.20;1.00;;;;;;5064018;28;20276;-83
2023/12/16 04:37:01;;;;;;;11.80;3.97;;;7.20;1.00;;;;;;5078007;28;20209;-82
2023/12/16 04:39:28;;;;;;;12.53;4.70;;;7.20;1.00;;;;;;5076147;28;20257;-83
2023/12/16 04:41:56;;;;;;;13.07;4.33;;;7.20;1.00;;;;;;5073620;28;20218;-81
2023/12/16 04:44:23;;;;;;;14.37;3.73;;;7.40;1.00;;;;;;5079586;28;20591;-81
2023/12/16 04:46:50;;;;;;;13.77;4.23;;;7.20;1.00;;;;;;5069096;28;20234;-82
2023/12/16 04:49:17;;;;;;;12.70;4.33;;;7.30;1.00;;;;;;5072704;28;20241;-82
2023/12/16 04:51:44;;;;;;;16.20;4.70;;;7.20;1.00;;;;;;5070433;28;20301;-81
2023/12/16 04:54:10;;;;;;;13.30;4.00;;;7.20;1.00;;;;;;5061843;28;20211;-82
2023/12/16 04:56:37;;;;;;;12.00;4.60;;;7.20;1.00;;;;;;5063330;28;20646;-82
2023/12/16 04:59:05;;;;;;;9.80;3.73;;;7.30;1.00;;;;;;5080788;28;20202;-82
2023/12/16 05:01:35;;;;;;;15.37;4.20;;;7.10;1.00;;;;;;5071050;28;20209;-82
2023/12/16 05:04:02;;;;;;;12.83;4.47;;;7.10;1.00;;;;;;5074510;28;20209;-82
2023/12/16 05:06:29;;;;;;;11.73;3.60;;;7.10;1.00;;;;;;5073573;28;20206;-82
2023/12/16 05:08:55;;;;;;;10.83;3.97;;;7.30;1.00;;;;;;5064183;28;20229;-82
2023/12/16 05:11:22;;;;;;;10.97;3.80;;;7.40;1.00;;;;;;5080057;28;20291;-82
2023/12/16 05:13:49;;;;;;;12.10;4.30;;;7.20;1.00;;;;;;5063689;28;20221;-82
2023/12/16 05:16:20;;;;;;;11.73;4.10;;;7.20;1.00;;;;;;5077509;28;20210;-83
2023/12/16 05:18:46;;;;;;;15.00;4.73;;;7.20;1.00;;;;;;5067928;28;20186;-82
2023/12/16 05:21:13;;;;;;;13.07;4.57;;;7.20;1.00;;;;;;5077392;28;20237;-82
2023/12/16 05:23:40;;;;;;;13.57;4.90;;;7.20;1.00;;;;;;5063458;28;20238;-82
2023/12/16 05:26:07;;;;;;;13.67;4.63;;;7.20;1.00;;;;;;5073584;28;20230;-82
2023/12/16 05:28:33;;;;;;;12.70;5.30;;;7.30;1.00;;;;;;5062009;28;20223;-82
2023/12/16 05:31:00;;;;;;;14.90;5.77;;;7.10;1.00;;;;;;5072579;28;20219;-82
2023/12/16 05:33:29;;;;;;;11.93;5.23;;;7.10;1.00;;;;;;5077375;28;20585;-82
2023/12/16 05:35:55;;;;;;;15.97;4.73;;;7.20;1.00;;;;;;5068816;28;20574;-83
2023/12/16 05:38:22;;;;;;;14.53;4.97;;;7.10;1.00;;;;;;5073789;28;20234;-84
2023/12/16 05:40:49;;;;;;;14.13;5.33;;;7.30;1.00;;;;;;5077712;28;20309;-82
2023/12/16 05:43:17;;;;;;;15.93;5.70;;;7.20;1.00;;;;;;5070484;28;20195;-82
2023/12/16 05:45:43;;;;;;;14.30;5.10;;;7.20;1.00;;;;;;5073532;28;20288;-81
2023/12/16 05:48:11;;;;;;;17.53;5.40;;;7.20;1.00;;;;;;5077176;28;20218;-82
2023/12/16 05:50:39;;;;;;;15.97;5.23;;;7.20;1.00;;;;;;5074680;28;20294;-82
2023/12/16 05:53:06;;;;;;;15.37;5.13;;;7.10;1.00;;;;;;5066434;28;20198;-82
2023/12/16 05:55:33;;;;;;;10.33;4.63;;;7.20;1.00;;;;;;5072365;28;20657;-83
2023/12/16 05:58:00;;;;;;;16.60;5.70;;;7.20;1.00;;;;;;5071984;28;20682;-83
2023/12/16 06:00:28;;;;;;;19.63;5.50;;;7.20;1.00;;;;;;5070335;28;20343;-83
2023/12/16 06:02:54;;;;;;;13.07;5.07;;;7.40;1.00;;;;;;5071121;28;20218;-83
2023/12/16 06:05:22;;;;;;;19.27;5.50;;;7.30;1.00;;;;;;5076820;28;20198;-83
2023/12/16 06:07:50;;;;;;;11.10;4.53;;;7.30;1.00;;;;;;5068686;28;20214;-83
2023/12/16 06:10:17;;;;;;;15.57;5.73;;;7.30;1.00;;;;;;5071683;28;20222;-83
2023/12/16 06:12:44;;;;;;;10.77;5.03;;;7.30;1.00;;;;;;5073017;28;20231;-84
2023/12/16 06:15:11;;;;;;;13.33;5.43;;;7.30;1.00;;;;;;5066990;28;20222;-82
2023/12/16 06:17:38;;;;;;;13.37;5.00;;;7.20;1.00;;;;;;5073205;28;20310;-82
2023/12/16 06:20:05;;;;;;;15.57;5.77;;;7.30;1.00;;;;;;5065722;28;20653;-81
2023/12/16 06:22:32;;;;;;;14.37;4.83;;;7.30;1.00;;;;;;5074944;28;20256;-84
2023/12/16 06:25:00;;;;;;;13.77;5.77;;;7.30;1.00;;;;;;5067157;28;20203;-84
2023/12/16 06:27:27;;;;;;;14.07;4.73;;;7.30;1.00;;;;;;5073213;28;20206;-82
2023/12/16 06:29:53;;;;;;;14.47;6.10;;;7.50;1.00;;;;;;5072301;28;20226;-82
2023/12/16 06:32:20;;;;;;;12.77;4.40;;;7.30;1.00;;;;;;5074975;28;20214;-80
2023/12/16 06:34:47;;;;;;;14.93;4.90;;;7.30;1.00;;;;;;5075778;28;20190;-81
2023/12/16 06:37:14;;;;;;;13.50;4.50;;;7.40;1.00;;;;;;5078170;28;20286;-83
2023/12/16 06:39:41;;;;;;;12.50;4.67;;;7.40;99.90;;;;;;5072595;28;20562;-82
2023/12/16 06:42:09;;;;;;;17.63;4.37;;;7.40;99.90;;;;;;5072842;28;20261;-80
2023/12/16 06:44:37;;;;;;;10.80;4.10;;;7.40;99.90;;;;;;5079430;28;20206;-81
2023/12/16 06:47:05;;;;;;;16.87;4.07;;;7.40;99.90;;;;;;5079888;28;20635;-80
2023/12/16 06:49:31;;;;;;;15.13;4.10;;;7.40;99.90;;;;;;5070799;28;20306;-83
2023/12/16 06:51:58;;;;;;;13.87;4.13;;;7.50;99.90;;;;;;5067166;28;20231;-83
2023/12/16 06:54:25;;;;;;;11.43;3.87;;;7.90;99.90;;;;;;5080364;28;20293;-83
2023/12/16 06:56:52;;;;;;;13.80;4.00;;;7.50;99.90;;;;;;5082524;28;20569;-82
2023/12/16 06:59:21;;;;;;;11.90;4.13;;;7.60;99.90;;;;;;5075000;28;20206;-83
2023/12/16 07:01:48;;;;;;;10.47;3.93;;;7.50;99.90;;;;;;5077214;28;20270;-81
2023/12/16 07:04:15;;;;;;;12.80;3.37;;;7.40;99.90;;;;;;5074829;28;20206;-81
2023/12/16 07:06:42;;;;;;;14.53;4.47;;;7.40;99.90;;;;;;5073388;28;20253;-83
2023/12/16 07:09:09;;;;;;;9.30;3.70;;;7.30;99.90;;;;;;5074888;28;20246;-82
2023/12/16 07:11:36;;;;;;;13.60;3.77;;;7.40;99.90;;;;;;5072771;28;20226;-83
2023/12/16 07:14:02;;;;;;;13.60;4.23;;;7.40;99.90;;;;;;5074515;28;20206;-84
2023/12/16 07:16:31;;;;;;;14.53;4.27;;;7.40;99.90;;;;;;5070221;28;20830;-83
2023/12/16 07:18:58;;;;;;;14.10;4.63;;;7.30;99.90;;;;;;5077775;28;20205;-81
2023/12/16 07:21:27;;;;;;;14.80;4.17;;;7.30;99.90;;;;;;5075942;28;20237;-81
2023/12/16 07:23:54;;;;;;;14.47;4.23;;;7.20;99.90;;;;;;5072996;28;20215;-80
2023/12/16 07:26:21;;;;;;;8.43;3.93;;;7.20;99.90;;;;;;5069827;28;20210;-82
2023/12/16 07:28:50;;;;;;;15.13;4.10;;;7.10;99.90;;;;;;5071844;28;20219;-83
2023/12/16 07:31:17;;;;;;;11.53;3.23;;;7.00;99.90;;;;;;5070513;28;20239;-82
2023/12/16 07:33:45;;;;;;;15.93;6.60;;;7.00;99.90;;;;;;5066179;28;20254;-81
2023/12/16 07:36:12;;;;;;;11.10;3.30;;;7.00;99.90;;;;;;5070662;28;20240;-84
2023/12/16 07:38:39;;;;;;;9.77;3.73;;;7.30;99.90;;;;;;5074513;28;20199;-82
2023/12/16 07:41:07;;;;;;;16.33;3.73;;;7.00;99.90;;;;;;5073401;28;20740;-82
2023/12/16 07:43:34;;;;;;;9.70;3.20;;;6.80;99.90;;;;;;5072513;28;20214;-82
2023/12/16 07:46:01;;;;;;;11.53;3.03;;;6.70;1.00;;;;;;5076225;28;20203;-82
2023/12/16 07:48:28;;;;;;;14.03;3.37;;;6.40;1.00;;;;;;5075391;28;20314;-81
2023/12/16 07:50:56;;;;;;;11.13;3.43;;;6.20;1.00;;;;;;5079635;28;20230;-81
2023/12/16 07:53:23;;;;;;;11.17;3.03;;;6.10;1.00;;;;;;5075211;28;20730;-83
2023/12/16 07:55:51;;;;;;;13.60;3.50;;;6.00;99.90;;;;;;5072711;28;20232;-82
2023/12/16 07:58:17;;;;;;;9.43;3.53;;;6.10;1.00;;;;;;5074981;28;20225;-81
2023/12/16 08:00:44;;;;;;;12.37;3.80;;;6.00;1.00;;;;;;5073226;28;20238;-81
2023/12/16 08:03:11;;;;;;;10.80;3.60;;;6.00;1.00;;;;;;5073401;28;20210;-81
2023/12/16 08:05:41;;;;;;;13.57;4.57;;;6.00;56.30;;;;;;5072389;28;20257;-83
2023/12/16 08:08:09;;;;;;;10.40;3.77;;;5.90;99.90;;;;;;5078101;28;20217;-82
2023/12/16 08:10:36;;;;;;;10.03;3.23;;;5.90;99.90;;;;;;5078712;28;20268;-83
2023/12/16 08:13:03;;;;;;;10.33;3.60;;;5.80;99.90;;;;;;5082142;28;20198;-81
2023/12/16 08:15:30;;;;;;;15.20;3.80;;;6.00;1.00;;;;;;5070255;28;20214;-81
2023/12/16 08:17:57;;;;;;;10.17;3.80;;;5.90;99.90;;;;;;5073861;28;20195;-81
2023/12/16 08:20:24;;;;;;;13.43;3.80;;;5.90;97.70;;;;;;5071270;28;20223;-80
2023/12/16 08:22:51;;;;;;;12.53;3.60;;;6.20;1.00;;;;;;5073184;28;20571;-82
2023/12/16 08:25:20;;;;;;;11.60;4.13;;;6.30;1.00;;;;;;5071661;28;20216;-82
2023/12/16 08:27:46;;;;;;;10.07;3.30;;;6.30;1.00;;;;;;5076776;28;20219;-82
2023/12/16 08:30:14;;;;;;;15.97;3.50;;;6.90;1.00;;;;;;5072299;28;20222;-82
2023/12/16 08:32:41;;;;;;;13.07;3.80;;;6.50;1.00;;;;;;5072088;28;20209;-82
2023/12/16 08:35:08;;;;;;;12.67;4.90;;;6.70;1.00;;;;;;5073047;28;20596;-82
2023/12/16 08:37:36;;;;;;;13.00;4.13;;;6.80;1.00;;;;;;5077020;28;20640;-83
2023/12/16 08:40:04;;;;;;;10.73;3.50;;;6.90;1.00;;;;;;5070834;28;20337;-83
2023/12/16 08:42:32;;;;;;;11.23;3.63;;;6.90;1.00;;;;;;5071315;28;20229;-83
2023/12/16 08:44:59;;;;;;;15.13;3.90;;;7.00;1.00;;;;;;5077780;28;20205;-81
2023/12/16 08:47:26;;;;;;;10.40;3.73;;;7.20;1.00;;;;;;5074094;28;20230;-81
2023/12/16 08:49:52;;;;;;;13.80;3.80;;;7.70;1.00;;;;;;5071068;28;20249;-82
2023/12/16 08:52:19;;;;;;;9.83;3.50;;;7.60;99.90;;;;;;5065450;28;20211;-84
2023/12/16 08:54:46;;;;;;;13.67;3.43;;;7.90;99.90;;;;;;5073471;28;20206;-85
2023/12/16 08:57:13;;;;;;;16.27;4.50;;;8.10;99.90;;;;;;5077740;28;20202;-82
2023/12/16 08:59:41;;;;;;;9.67;3.40;;;8.00;99.90;;;;;;5074782;28;20198;-82
2023/12/16 09:02:08;;;;;;;9.67;3.10;;;8.40;99.90;;;;;;5075243;28;20248;-83
2023/12/16 09:04:35;;;;;;;12.43;3.73;;;8.00;99.90;;;;;;5071811;28;20314;-82
2023/12/16 09:07:02;;;;;;;10.20;3.20;;;8.00;99.90;;;;;;5075296;28;20232;-82
2023/12/16 09:09:29;;;;;;;11.43;3.60;;;8.00;99.90;;;;;;5070910;28;20302;-84
2023/12/16 09:11:55;;;;;;;16.43;4.13;;;8.20;99.90;;;;;;5068121;28;20229;-83
2023/12/16 09:14:22;;;;;;;11.37;3.50;;;8.30;99.00;;;;;;5069392;28;20207;-82
2023/12/16 09:16:50;;;;;;;10.40;3.63;;;8.20;93.20;;;;;;5072472;28;20218;-81
2023/12/16 09:19:17;;;;;;;10.07;3.50;;;8.20;99.90;;;;;;5062226;28;20199;-83
2023/12/16 09:21:44;;;;;;;15.50;3.83;;;8.20;99.90;;;;;;5073185;28;20290;-83
2023/12/16 09:24:11;;;;;;;10.20;3.77;;;8.30;99.90;;;;;;5061805;28;20199;-83
2023/12/16 09:26:38;;;;;;;13.63;4.27;;;8.30;98.80;;;;;;5061172;28;20198;-80
2023/12/16 09:29:06;;;;;;;12.30;3.80;;;8.50;99.90;;;;;;5058245;28;20231;-79
2023/12/16 09:31:32;;;;;;;8.07;3.00;;;8.60;99.90;;;;;;5064746;28;20227;-79
2023/12/16 09:34:01;;;;;;;8.53;3.30;;;8.70;99.90;;;;;;5059213;28;20589;-79
2023/12/16 09:36:28;;;;;;;11.07;3.60;;;8.70;26.80;;;;;;5065153;28;20213;-80
2023/12/16 09:38:55;;;;;;;8.10;3.37;;;8.70;61.10;;;;;;5060663;28;20649;-80
2023/12/16 09:41:24;;;;;;;14.67;3.53;;;8.60;91.40;;;;;;5062149;28;20231;-81
2023/12/16 09:43:53;;;;;;;11.90;3.87;;;8.60;76.30;;;;;;5063897;28;20201;-79
2023/12/16 09:46:21;;;;;;;13.40;3.40;;;8.50;49.30;;;;;;5065659;28;20210;-80
2023/12/16 09:48:48;;;;;;;8.73;3.67;;;8.50;34.00;;;;;;5062747;28;20206;-79
2023/12/16 09:51:17;;;;;;;15.53;4.50;;;8.60;63.50;;;;;;5066063;28;20312;-78
2023/12/16 09:53:44;;;;;;;14.30;3.80;;;8.60;48.70;;;;;;5067668;28;20200;-78
2023/12/16 09:56:11;;;;;;;13.63;5.60;;;8.60;96.40;;;;;;5070009;28;20213;-80
2023/12/16 09:58:42;;;;;;;12.03;4.00;;;8.70;99.90;;;;;;5068861;28;20206;-80
2023/12/16 10:01:10;;;;;;;15.10;4.67;;;8.70;99.90;;;;;;5069078;28;20221;-79
2023/12/16 10:03:38;;;;;;;13.77;4.20;;;8.70;99.90;;;;;;5072432;28;20237;-80
2023/12/16 10:06:06;;;;;;;14.87;4.10;;;8.80;99.90;;;;;;5074081;28;20701;-82
2023/12/16 10:08:35;;;;;;;16.03;4.40;;;8.80;99.90;;;;;;5064084;28;20215;-80
2023/12/16 10:11:03;;;;;;;13.53;3.73;;;8.90;96.00;;;;;;5067484;28;20226;-80
2023/12/16 10:13:32;;;;;;;11.53;3.57;;;8.90;97.20;;;;;;5067841;28;20209;-80
2023/12/16 10:15:59;;;;;;;16.17;3.73;;;8.90;87.40;;;;;;5063950;28;20215;-80
2023/12/16 10:18:26;;;;;;;12.63;3.60;;;8.90;99.90;;;;;;5057867;28;20203;-77
2023/12/16 10:20:56;;;;;;;14.10;3.87;;;8.90;99.90;;;;;;5065759;28;20281;-80
2023/12/16 10:23:23;;;;;;;13.53;3.77;;;9.00;92.10;;;;;;5077096;28;20199;-80
2023/12/16 10:25:52;;;;;;;13.40;4.53;;;8.90;58.40;;;;;;5059991;28;20198;-80
2023/12/16 10:28:19;;;;;;;14.77;3.80;;;9.00;48.10;;;;;;5063374;28;20580;-80
2023/12/16 10:30:46;;;;;;;12.67;3.40;;;9.00;32.00;;;;;;5069172;28;20226;-79
2023/12/16 10:33:14;;;;;;;15.67;4.20;;;9.10;62.00;;;;;;5068655;28;20636;-79
2023/12/16 10:35:42;;;;;;;13.67;3.43;;;9.10;99.50;;;;;;5065391;28;20267;-80
2023/12/16 10:38:11;;;;;;;11.00;3.47;;;9.10;90.50;;;;;;5065113;28;20666;-83
2023/12/16 10:40:38;;;;;;;11.70;3.60;;;9.20;40.90;;;;;;5067357;28;20251;-81
2023/12/16 10:43:08;;;;;;;15.50;3.70;;;9.20;51.70;;;;;;5071685;28;20305;-80
2023/12/16 10:45:35;;;;;;;16.67;4.43;;;9.30;52.20;;;;;;5070104;28;20199;-81
2023/12/16 10:48:05;;;;;;;16.13;3.80;;;9.30;45.00;;;;;;5066764;28;20203;-81
2023/12/16 10:50:33;;;;;;;11.30;3.70;;;9.40;52.60;;;;;;5068238;28;20230;-80
2023/12/16 10:53:03;;;;;;;18.73;4.33;;;9.50;54.50;;;;;;5070579;28;20221;-79
2023/12/16 10:55:32;;;;;;;16.57;4.33;;;9.40;97.40;;;;;;5068041;28;20205;-80
2023/12/16 10:58:10;;;;;;;11.63;3.83;;;9.40;99.90;;;;;;5070916;28;20218;-80
2023/12/16 11:00:40;;;;;;;14.10;3.80;;;9.50;99.90;;;;;;5073561;28;20279;-79
2023/12/16 11:03:13;;;;;;;10.17;3.63;;;9.40;82.60;;;;;;5072623;28;20218;-81
2023/12/16 11:05:46;;;;;;;13.43;3.40;;;9.50;34.90;;;;;;5072957;28;20207;-80
2023/12/16 11:08:14;;;;;;;13.23;3.23;;;9.50;9.10;;;;;;5068785;28;20206;-81
2023/12/16 11:10:41;;;;;;;13.47;3.30;;;9.50;1.00;;;;;;5072258;28;20219;-81
2023/12/16 11:13:09;;;;;;;12.63;3.20;;;9.60;1.00;;;;;;5074759;28;20199;-80
2023/12/16 11:15:37;;;;;;;11.70;3.13;;;9.50;1.00;;;;;;5071068;28;20206;-82
2023/12/16 11:18:09;;;;;;;12.00;3.63;;;9.50;31.80;;;;;;5076374;28;20261;-81
2023/12/16 11:20:40;;;;;;;18.43;3.47;;;9.60;1.00;;;;;;5075271;28;20223;-80
2023/12/16 11:23:09;;;;;;;15.83;4.00;;;9.60;1.00;;;;;;5074507;28;20207;-80
2023/12/16 11:25:36;;;;;;;15.27;3.53;;;9.60;1.00;;;;;;5071059;28;20214;-82
2023/12/16 11:28:04;;;;;;;14.80;4.10;;;9.60;1.00;;;;;;5070179;28;20204;-79
2023/12/16 11:30:34;;;;;;;16.00;4.00;;;9.60;1.00;;;;;;5067305;28;20609;-79
2023/12/16 11:33:01;;;;;;;13.30;3.70;;;9.60;1.00;;;;;;5064341;28;20230;-80
2023/12/16 11:35:48;;;;;;;15.87;4.33;;;9.60;1.00;;;;;;5064747;28;20562;-79
2023/12/16 11:38:38;;;;;;;14.73;3.73;;;9.60;1.00;;;;;;5066275;28;20234;-79
2023/12/16 11:41:05;;;;;;;12.23;3.93;;;9.60;1.00;;;;;;5063328;28;20280;-80
2023/12/16 11:43:49;;;;;;;14.90;3.80;;;9.60;1.00;;;;;;5069431;28;20206;-79
2023/12/16 11:46:39;;;;;;;12.17;3.03;;;9.60;1.00;;;;;;5068528;28;20306;-79
2023/12/16 11:49:10;;;;;;;12.10;4.40;;;9.60;1.00;;;;;;5068742;28;20205;-80
2023/12/16 11:51:39;;;;;;;15.53;4.53;;;9.70;1.00;;;;;;5069179;28;20829;-81
2023/12/16 11:54:06;;;;;;;10.60;3.23;;;9.60;1.50;;;;;;5071111;28;20729;-80
2023/12/16 11:56:34;;;;;;;15.03;4.20;;;9.60;1.00;;;;;;5072270;28;20684;-80
2023/12/16 11:59:02;;;;;;;12.40;4.00;;;9.70;1.00;;;;;;5073650;28;20212;-79
2023/12/16 12:01:31;;;;;;;19.30;4.00;;;9.60;1.00;;;;;;5069632;28;20223;-79
2023/12/16 12:04:01;;;;;;;13.07;3.37;;;9.60;1.00;;;;;;5068802;28;20198;-80
2023/12/16 12:06:28;;;;;;;14.93;4.00;;;9.60;1.00;;;;;;5068138;28;20252;-79
2023/12/16 12:08:55;;;;;;;10.93;3.33;;;9.50;1.00;;;;;;5072189;28;20210;-79
2023/12/16 12:11:22;;;;;;;12.17;3.20;;;9.60;1.00;;;;;;5073148;28;20248;-81
2023/12/16 12:13:51;;;;;;;10.80;4.07;;;9.60;1.00;;;;;;5067153;28;20195;-79
2023/12/16 12:16:18;;;;;;;11.53;3.53;;;9.70;1.00;;;;;;5074471;28;20211;-80
2023/12/16 12:18:45;;;;;;;13.37;3.53;;;9.70;1.00;;;;;;5069197;28;20577;-81
2023/12/16 12:21:13;;;;;;;14.90;3.47;;;9.70;1.00;;;;;;5074969;28;20638;-81
2023/12/16 12:23:42;;;;;;;20.87;3.80;;;9.70;1.00;;;;;;5069560;28;20202;-80
2023/12/16 12:26:09;;;;;;;10.47;3.10;;;9.70;1.00;;;;;;5070745;28;20306;-80
2023/12/16 12:28:35;;;;;;;11.30;3.00;;;9.70;1.00;;;;;;5073525;28;20561;-80
2023/12/16 12:31:04;;;;;;;10.40;2.97;;;9.80;1.00;;;;;;5066961;28;20309;-79
2023/12/16 12:33:32;;;;;;;16.20;3.80;;;9.80;1.00;;;;;;5072373;28;20202;-81
2023/12/16 12:35:59;;;;;;;14.33;3.60;;;9.80;13.40;;;;;;5061980;28;20305;-79
2023/12/16 12:38:28;;;;;;;14.97;4.40;;;9.80;20.80;;;;;;5068529;28;20238;-78
2023/12/16 12:41:00;;;;;;;13.37;3.20;;;9.80;1.00;;;;;;5064657;28;20226;-79
2023/12/16 12:43:31;;;;;;;11.87;2.97;;;9.80;21.80;;;;;;5066948;28;20306;-78
2023/12/16 12:46:09;;;;;;;14.37;4.20;;;9.80;16.30;;;;;;5066729;28;20202;-79
2023/12/16 12:48:37;;;;;;;15.27;3.70;;;9.80;67.70;;;;;;5070190;28;20698;-79
2023/12/16 12:51:06;;;;;;;12.97;4.03;;;9.90;28.10;;;;;;5069563;28;20308;-79
2023/12/16 12:53:35;;;;;;;16.97;3.93;;;9.90;39.80;;;;;;5064739;28;20285;-78